Tiempo atmosférico en la estación meteorológica de Torreblanca, Castelló/Castellón (16 m.)



Fecha
DESCASC
Temp. máxima en grados centígrados (hora)
DESCASC
Temp. mínima en grados centígrados (hora)
DESCASC
Temp. media en grados centígrados
DESCASC
Racha de viento máxima en m/sg (hora)
DESCASC
Velocidad máxima media en intervalos de 10 minutos(hora)
DESCASC
Precipitaciones diarias en mm
DESCASC
Precipitaciones de 00:00 a 06:00 en mm
DESCASC
Precipitaciones de 06:00 a 12:00 en mm
DESCASC
Precipitaciones de 12:00 a 18:00 en mm
DESCASC
Precipitaciones de 18:00 a 24:00 en mm
DESCASC
16-01-2020 18.2 (13:10) 8.1 (06:10) 13.2 8.33 (04:00) 6.39 (04:00) 0 0 0 0 0
15-01-2020 14.1 (16:30) 5.2 (07:20) 9.7 7.22 (23:30) 5.56 (06:00) 0 0 0 0 0
14-01-2020 14.7 (12:20) 4.7 (08:10) 9.7 7.78 (01:00) 5.56 (01:00) 0 0 0 0 0
13-01-2020 13.1 (14:00) 4.7 (06:50) 8.9 6.94 (22:40) 5.56 (22:40) 0 0 0 0 0
12-01-2020 13.7 (13:50) 4.8 (00:00) 9.3 7.78 (07:20) 5.56 (07:20) 0 0 0 0 0
11-01-2020 15.4 (12:30) 5.9 (00:00) 10.6 8.33 (03:40) 5.56 (04:30) 0 0 0 0 0
10-01-2020 13.4 (12:10) 8.8 (00:00) 11.1 14.17 (10:40) 8.33 (14:10) 0.2 0 0 0.2 0
09-01-2020 14.5 (14:50) 7 (00:00) 10.8 6.39 (08:10) 4.72 (08:10) 0 0 0 0 0
08-01-2020 16.3 (16:30) 6.7 (00:00) 11.5 6.11 (10:20) 4.44 (10:20) 0 0 0 0 0
07-01-2020 14.2 (14:20) 6.3 (00:00) 10.3 5.28 (08:10) 3.61 (03:50) 0 0 0 0 0
06-01-2020 15.3 (12:50) 7.1 (00:00) 11.2 8.33 (03:50) 5.83 (04:50) 0 0 0 0 0
05-01-2020 15.4 (14:50) 7.9 (00:00) 11.6 6.67 (22:40) 5.28 (22:40) 0 0 0 0 0
04-01-2020 15.6 (13:00) 5.8 (00:00) 10.7 5.83 (23:59) 4.72 (23:59) 0 0 0 0 0
03-01-2020 13.2 (14:50) 8 (00:00) 10.6 5 (01:30) 3.33 (00:10) 0 0 0 0 0
02-01-2020 13.1 (16:20) 9 (00:00) 11.1 6.11 (23:30) 4.17 (23:30) 0 0 0 0 0
01-01-2020 11.2 (14:40) 9.2 (00:00) 10.2 3.61 (13:30) 2.22 (11:10) 0 0 0 0 0
31-12-2019 13.3 (13:00) 8 (00:00) 10.7 5.28 (01:30) 3.89 (01:30) 0 0 0 0 0
30-12-2019 15.4 (13:40) 8.4 (00:00) 11.9 -- (--) -- (--) 0 0 0 0 0
29-12-2019 15.3 (13:20) 9.4 (00:00) 12.3 6.39 (08:10) 4.17 (08:20) 0 0 0 0 0
28-12-2019 14.4 (15:20) 7.1 (00:00) 10.7 6.94 (10:10) 5.28 (10:00) 0 0 0 0 0
27-12-2019 15.8 (15:00) 8.4 (00:00) 12.1 6.11 (22:50) 4.17 (21:40) 0 0 0 0 0
26-12-2019 22.3 (15:00) 9.8 (00:00) 16 10.83 (13:20) 6.11 (13:20) 0 0 0 0 0
25-12-2019 19.9 (13:10) 10.1 (00:00) 15 6.39 (06:50) 4.17 (08:30) 0 0 0 0 0
24-12-2019 22.1 (14:20) 11.7 (00:00) 16.9 7.5 (05:30) 5.56 (05:20) 0 0 0 0 0
23-12-2019 18.8 (00:00) 11.1 (00:00) 14.9 9.44 (00:10) 5 (00:10) 0 0 0 0 0
22-12-2019 22.3 (12:10) 15.9 (00:00) 19.1 18.33 (06:40) 10 (06:40) 0 0 0 0 0
21-12-2019 25.8 (16:00) 13.6 (00:00) 19.7 20.83 (19:30) 12.22 (19:30) 0 0 0 0 0
20-12-2019 18.8 (11:10) 12.1 (00:00) 15.4 16.67 (06:40) 10.28 (06:40) 0 0 0 0 0

Gráficas

Temp. máximas Temp. mínimas Temp. medias Precipitaciones Rachas de viento máximas Velocidades máximas media en intervalos de 10 minutos

Datos horarios

Fecha y hora oficial Temperatura (ºC) Velocidad del viento (km/h) Dirección del viento Racha (km/h) Dirección de racha Precipitación (mm) Presión (hPa) Tendencia (hPa) Humedad (%)
2020-01-18 23:00:00 11.3 13 Norte 22 Noroeste 0 -- -- 74
2020-01-18 22:00:00 10.7 9 Norte 21 Noroeste 0 -- -- 76
2020-01-18 21:00:00 10.9 15 Norte 27 Noroeste 0 -- -- 74
2020-01-18 20:00:00 10.5 17 Norte 24 Norte 0 -- -- 75
2020-01-18 19:00:00 12.2 13 Norte 21 Norte 0 -- -- 75
2020-01-18 18:00:00 12.8 8 Norte 15 Este 0 -- -- 76
2020-01-18 17:00:00 14.8 8 Este 18 Sur 0 -- -- 70
2020-01-18 16:00:00 14.6 11 Sur 24 Sur 0 -- -- 67
2020-01-18 15:00:00 14.7 17 Sur 27 Sur 0 -- -- 59
2020-01-18 14:00:00 14.9 15 Sur 24 Sur 0 -- -- 56
2020-01-18 13:00:00 14.9 10 Sur 19 Sur 0 -- -- 62
2020-01-18 12:00:00 13.6 3 Sudoeste 5 Sudoeste 0 -- -- 66
2020-01-18 11:00:00 11.9 0 Calma 10 Noroeste 0 -- -- 67
2020-01-18 10:00:00 10.7 5 Noroeste 10 Norte 0 -- -- 66
2020-01-18 09:00:00 10.3 6 Noroeste 15 Noroeste 0 -- -- 60
2020-01-18 08:00:00 10 3 Oeste 14 Oeste 0 -- -- 65
2020-01-18 07:00:00 9.3 8 Noroeste 15 Noroeste 0 -- -- 59
2020-01-18 06:00:00 9.3 9 Noroeste 12 Noroeste 0 -- -- 56
2020-01-18 05:00:00 9.6 10 Noroeste 14 Noroeste 0 -- -- 55
2020-01-18 04:00:00 9.2 5 Noroeste 12 Sudoeste 0 -- -- 59
2020-01-18 03:00:00 10.7 7 Sudoeste 29 Norte 0 -- -- 55
2020-01-18 02:00:00 10.5 18 Norte 29 Norte 0 -- -- 60
2020-01-18 01:00:00 10.1 18 Norte 31 Norte 0 -- -- 63
2020-01-18 00:00:00 11 8 Norte 27 Norte 0 -- -- 61
2020-01-17 23:00:00 11.8 16 Norte 29 Norte 0 -- -- 56
2020-01-17 22:00:00 12.9 16 Norte 23 Norte 0 -- -- 50
2020-01-17 21:00:00 11.9 6 Norte 17 Norte 0 -- -- 51
2020-01-17 20:00:00 12.9 8 Noroeste 16 Noroeste 0 -- -- 48
2020-01-17 19:00:00 13.6 4 Noroeste 19 Oeste 0 -- -- 45
2020-01-17 18:00:00 16.3 8 Noroeste 24 Noroeste 0 -- -- 39
2020-01-17 17:00:00 17.1 11 Noroeste 22 Noroeste 0 -- -- 41
2020-01-17 16:00:00 15.3 4 Oeste 12 Sur 0 -- -- 59
2020-01-17 15:00:00 15.7 6 Sur 10 Sur 0 -- -- 69
2020-01-17 14:00:00 14.3 6 Oeste 10 Sur 0 -- -- 71
2020-01-17 13:00:00 15 3 Sudeste 10 Este 0 -- -- 62
2020-01-17 12:00:00 13.8 2 Sudeste 8 Este 0 -- -- 63
2020-01-17 11:00:00 12.9 2 Sudeste 8 Sur 0 -- -- 66
2020-01-17 10:00:00 12.3 3 Sudoeste 17 Noroeste 0 -- -- 69
2020-01-17 09:00:00 9.6 8 Noroeste 19 Noroeste 0 -- -- 66
2020-01-17 08:00:00 8.7 10 Noroeste 18 Noroeste 0 -- -- 71
2020-01-17 07:00:00 9 12 Noroeste 22 Noroeste 0 -- -- 74
2020-01-17 06:00:00 8.3 15 Noroeste 23 Noroeste 0 -- -- 79
2020-01-17 05:00:00 7.8 3 Noroeste 10 Noroeste 0 -- -- 87
2020-01-17 04:00:00 7.7 4 Noroeste 9 Noroeste 0 -- -- 87
2020-01-17 03:00:00 8.3 4 Noroeste 22 Noroeste 0 -- -- 86
2020-01-17 02:00:00 8.8 8 Noroeste 15 Norte 0 -- -- 88
2020-01-17 01:00:00 8.4 4 Norte 15 Noroeste 0 -- -- 90
2020-01-17 00:00:00 9.2 8 Noroeste 17 Noroeste 0 -- -- 91
2020-01-16 23:00:00 9 9 Noroeste 15 Noroeste 0 -- -- 91
2020-01-16 22:00:00 9.5 7 Noroeste 13 Noroeste 0 -- -- 92
2020-01-16 21:00:00 10 7 Noroeste 12 Noroeste 0 -- -- 91
2020-01-16 20:00:00 10.6 8 Noroeste 10 Noroeste 0 -- -- 92
2020-01-16 19:00:00 10.9 3 Noroeste 7 Noroeste 0 -- -- 88
2020-01-16 18:00:00 13.4 0 Calma 9 Sudeste 0 -- -- 82
2020-01-16 17:00:00 14.4 5 Sur 12 Sudeste 0 -- -- 80
2020-01-16 16:00:00 14.8 6 Sur 13 Sur 0 -- -- 75
2020-01-16 15:00:00 15.6 9 Sudeste 16 Sudeste 0 -- -- 71
2020-01-16 14:00:00 16.3 9 Sudeste 15 Sudeste 0 -- -- 62
2020-01-16 13:00:00 18.1 3 Sudoeste 10 Sudoeste 0 -- -- 49
2020-01-16 12:00:00 16.6 4 Sudeste 6 Sudeste 0 -- -- 52
2020-01-16 11:00:00 14.9 5 Sudeste 8 Sudeste 0 -- -- 62
2020-01-16 10:00:00 11.9 5 Noroeste 16 Noroeste 0 -- -- 68
2020-01-16 09:00:00 9.5 6 Noroeste 11 Norte 0 -- -- 72
2020-01-16 08:00:00 9.6 4 Noroeste 18 Noroeste 0 -- -- 69
2020-01-16 07:00:00 9.8 6 Norte 21 Norte 0 -- -- 68
2020-01-16 06:00:00 8.4 5 Norte 22 Noroeste 0 -- -- 73
2020-01-16 05:00:00 10.3 5 Norte 28 Noroeste 0 -- -- 67
2020-01-16 04:00:00 9.9 23 Noroeste 30 Noroeste 0 -- -- 66
2020-01-16 03:00:00 9.7 22 Norte 28 Noroeste 0 -- -- 65
2020-01-16 02:00:00 9.9 13 Noroeste 22 Norte 0 -- -- 64
2020-01-16 01:00:00 10.1 12 Norte 28 Noroeste 0 -- -- 64
2020-01-16 00:00:00 9.4 18 Noroeste 26 Norte 0 -- -- 69
2020-01-15 23:00:00 9 14 Noroeste 24 Norte 0 -- -- 76
2020-01-15 22:00:00 9 11 Noroeste 18 Noroeste 0 -- -- 78
2020-01-15 21:00:00 8.8 5 Noroeste 13 Noroeste 0 -- -- 76
2020-01-15 20:00:00 9.1 8 Noroeste 12 Noroeste 0 -- -- 76
2020-01-15 19:00:00 9 6 Noroeste 11 Noroeste 0 -- -- 77
2020-01-15 18:00:00 10.8 5 Noroeste 8 Noroeste 0 -- -- 69
2020-01-15 17:00:00 13.7 5 Sur 9 Sur 0 -- -- 58
2020-01-15 16:00:00 13.7 4 Sur 10 Sudeste 0 -- -- 67
2020-01-15 15:00:00 13.7 6 Sudeste 14 Sudeste 0 -- -- 69
2020-01-15 14:00:00 13.1 8 Sur 14 Sur 0 -- -- 73
2020-01-15 13:00:00 13 8 Sur 16 Sudoeste 0 -- -- 73
2020-01-15 12:00:00 13.2 4 Sur 11 Sur 0 -- -- 66
2020-01-15 11:00:00 11.1 3 Sudoeste 17 Noroeste 0 -- -- 66
2020-01-15 10:00:00 6.9 12 Noroeste 22 Noroeste 0 -- -- 71
2020-01-15 09:00:00 5.4 15 Noroeste 23 Noroeste 0 -- -- 76
2020-01-15 08:00:00 5.3 13 Noroeste 25 Noroeste 0 -- -- 75
2020-01-15 07:00:00 5.9 18 Noroeste 24 Noroeste 0 -- -- 74
2020-01-15 06:00:00 5.8 20 Norte 26 Noroeste 0 -- -- 77
2020-01-15 05:00:00 6.2 18 Norte 26 Noroeste 0 -- -- 76
2020-01-15 04:00:00 6.1 17 Noroeste 24 Norte 0 -- -- 77
2020-01-15 03:00:00 6.4 14 Noroeste 25 Norte 0 -- -- 79
2020-01-15 02:00:00 6.7 18 Norte 24 Noroeste 0 -- -- 80
2020-01-15 01:00:00 6.7 15 Noroeste 23 Noroeste 0 -- -- 85
2020-01-15 00:00:00 7.1 13 Noroeste 21 Noroeste 0 -- -- 88
2020-01-14 23:00:00 7.2 16 Noroeste 21 Noroeste 0 -- -- 89
2020-01-14 22:00:00 7.8 10 Noroeste 16 Noroeste 0 -- -- 90
2020-01-14 21:00:00 8.2 11 Noroeste 17 Noroeste 0 -- -- 89
2020-01-14 20:00:00 9 8 Noroeste 10 Noroeste 0 -- -- 89
2020-01-14 19:00:00 8.9 5 Noroeste 6 Noroeste 0 -- -- 86
2020-01-14 18:00:00 11.4 3 Noroeste 10 Sur 0 -- -- 77
2020-01-14 17:00:00 12.8 8 Sur 13 Sur 0 -- -- 74
2020-01-14 16:00:00 13.6 9 Sur 17 Sur 0 -- -- 68
2020-01-14 15:00:00 14.3 8 Sur 16 Sur 0 -- -- 55
2020-01-14 14:00:00 14.3 9 Sur 15 Sur 0 -- -- 56
2020-01-14 13:00:00 14.5 7 Sur 13 Sudeste 0 -- -- 46
2020-01-14 12:00:00 14.1 4 Sudeste 9 Sudeste 0 -- -- 45
2020-01-14 11:00:00 11.3 5 Norte 14 Norte 0 -- -- 47
2020-01-14 10:00:00 8.6 8 Noroeste 23 Norte 0 -- -- 57
2020-01-14 09:00:00 5.5 13 Norte 22 Noroeste 0 -- -- 67
2020-01-14 08:00:00 4.8 10 Noroeste 22 Norte 0 -- -- 71
2020-01-14 07:00:00 5.5 16 Norte 23 Norte 0 -- -- 65
2020-01-14 06:00:00 5.3 10 Noroeste 20 Noroeste 0 -- -- 68
2020-01-14 05:00:00 6.3 10 Noroeste 19 Noroeste 0 -- -- 65
2020-01-14 04:00:00 6.1 16 Noroeste 25 Norte 0 -- -- 67
2020-01-14 03:00:00 6.7 15 Noroeste 21 Norte 0 -- -- 68
2020-01-14 02:00:00 6.6 5 Norte 27 Noroeste 0 -- -- 74
2020-01-14 01:00:00 6.9 20 Norte 28 Norte 0 -- -- 75
2020-01-14 00:00:00 6.6 14 Noroeste 25 Noroeste 0 -- -- 79
2020-01-13 23:00:00 7.1 17 Noroeste 25 Norte 0 -- -- 77
2020-01-13 22:00:00 7.6 12 Noroeste 19 Noroeste 0 -- -- 73
2020-01-13 21:00:00 8.7 11 Noroeste 16 Noroeste 0 -- -- 69
2020-01-13 20:00:00 9.1 9 Noroeste 13 Norte 0 -- -- 68
2020-01-13 19:00:00 9.1 7 Noroeste 9 Noroeste 0 -- -- 67
2020-01-13 18:00:00 9.7 4 Noroeste 6 Noroeste 0 -- -- 70
2020-01-13 17:00:00 12 2 Este 7 Sudeste 0 -- -- 58
2020-01-13 16:00:00 12.7 4 Sudeste 9 Sudeste 0 -- -- 48
2020-01-13 15:00:00 12.7 6 Sudeste 12 Sudeste 0 -- -- 56
2020-01-13 14:00:00 13.1 4 Sudeste 10 Sudeste 0 -- -- 55
2020-01-13 13:00:00 12.8 6 Sudeste 10 Sudeste 0 -- -- 55
2020-01-13 12:00:00 11.9 7 Sur 11 Sur 0 -- -- 61
2020-01-13 11:00:00 11.3 4 Sur 11 Noroeste 0 -- -- 66
2020-01-13 10:00:00 7.6 10 Noroeste 20 Noroeste 0 -- -- 63
2020-01-13 09:00:00 5.3 5 Norte 17 Noroeste 0 -- -- 68
2020-01-13 08:00:00 4.9 4 Noroeste 17 Noroeste 0 -- -- 71
2020-01-13 07:00:00 5 11 Noroeste 20 Noroeste 0 -- -- 71
2020-01-13 06:00:00 5 10 Noroeste 19 Noroeste 0 -- -- 78
2020-01-13 05:00:00 5.4 14 Noroeste 21 Noroeste 0 -- -- 81
2020-01-13 04:00:00 5.9 13 Noroeste 19 Noroeste 0 -- -- 82
2020-01-13 03:00:00 6.1 13 Noroeste 20 Noroeste 0 -- -- 85
2020-01-13 02:00:00 7.1 10 Noroeste 21 Oeste 0 -- -- 88
2020-01-13 01:00:00 7.4 14 Noroeste 21 Noroeste 0 -- -- 90
2020-01-13 00:00:00 7.9 15 Oeste 21 Oeste 0 -- -- 87
2020-01-12 23:00:00 8 12 Noroeste 16 Noroeste 0 -- -- 91
2020-01-12 22:00:00 7.1 5 Noroeste 8 Noroeste 0 -- -- 93
2020-01-12 21:00:00 7.5 5 Noroeste 10 Noroeste 0 -- -- 91
2020-01-12 20:00:00 7.8 7 Noroeste 8 Noroeste 0 -- -- 91
2020-01-12 19:00:00 7.9 5 Noroeste 8 Noroeste 0 -- -- 88
2020-01-12 18:00:00 10.2 5 Noroeste 7 Noroeste 0 -- -- 79
2020-01-12 17:00:00 12.8 4 Sudeste 9 Sudeste 0 -- -- 72
2020-01-12 16:00:00 13.4 5 Sudeste 10 Sudeste 0 -- -- 68
2020-01-12 15:00:00 13.6 7 Sudeste 14 Sudeste 0 -- -- 67
2020-01-12 14:00:00 13.7 5 Sur 12 Sur 0 -- -- 67
2020-01-12 13:00:00 13.3 7 Sur 13 Sur 0 -- -- 67
2020-01-12 12:00:00 12.7 3 Sudeste 12 Sudeste 0 -- -- 68
2020-01-12 11:00:00 11.1 4 Este 17 Norte 0 -- -- 71
2020-01-12 10:00:00 8.1 10 Noroeste 19 Noroeste 0 -- -- 59
2020-01-12 09:00:00 5.3 13 Noroeste 24 Noroeste 0 -- -- 63
2020-01-12 08:00:00 5.3 17 Noroeste 28 Norte 0 -- -- 64
2020-01-12 07:00:00 4.9 13 Noroeste 22 Noroeste 0 -- -- 69
2020-01-12 06:00:00 5.1 15 Noroeste 23 Norte 0 -- -- 73
2020-01-12 05:00:00 5 13 Noroeste 19 Noroeste 0 -- -- 77
2020-01-12 04:00:00 5.4 13 Noroeste 17 Noroeste 0 -- -- 79
2020-01-12 03:00:00 6.1 9 Noroeste 19 Norte 0 -- -- 80
2020-01-12 02:00:00 6.8 13 Noroeste 22 Noroeste 0 -- -- 79
2020-01-12 01:00:00 6.6 13 Noroeste 22 Norte 0 -- -- 79
2020-01-12 00:00:00 6.8 15 Noroeste 21 Noroeste 0 -- -- 78
2020-01-11 23:00:00 7.3 13 Noroeste 20 Norte 0 -- -- 79
2020-01-11 22:00:00 7.6 11 Noroeste 18 Noroeste 0 -- -- 79
2020-01-11 21:00:00 8.3 10 Noroeste 16 Noroeste 0 -- -- 75
2020-01-11 20:00:00 8.4 8 Noroeste 10 Noroeste 0 -- -- 77
2020-01-11 19:00:00 8.3 4 Noroeste 6 Noroeste 0 -- -- 76
2020-01-11 18:00:00 11.8 2 Oeste 14 Sur 0 -- -- 66
2020-01-11 17:00:00 13.2 10 Sur 19 Sur 0 -- -- 62
2020-01-11 16:00:00 13.9 13 Sur 19 Sur 0 -- -- 60
2020-01-11 15:00:00 14.1 11 Sur 26 Sur 0 -- -- 54
2020-01-11 14:00:00 14.5 15 Sur 22 Sudeste 0 -- -- 59
2020-01-11 13:00:00 15.3 12 Sur 18 Sur 0 -- -- 53
2020-01-11 12:00:00 14.9 9 Noroeste 19 Norte 0 -- -- 40
2020-01-11 11:00:00 13.1 13 Noroeste 25 Noroeste 0 -- -- 46
2020-01-11 10:00:00 10.5 8 Noroeste 18 Noroeste 0 -- -- 53
2020-01-11 09:00:00 6.8 3 Sudoeste 9 Noroeste 0 -- -- 67
2020-01-11 08:00:00 6 6 Noroeste 10 Noroeste 0 -- -- 70
2020-01-11 07:00:00 7.8 4 Oeste 21 Norte 0 -- -- 64
2020-01-11 06:00:00 9.8 15 Norte 26 Norte 0 -- -- 57
2020-01-11 05:00:00 10.2 20 Norte 29 Norte 0 -- -- 57
2020-01-11 04:00:00 10.3 17 Norte 30 Norte 0 -- -- 57
2020-01-11 03:00:00 10.5 15 Norte 29 Norte 0 -- -- 57
2020-01-11 02:00:00 10.3 18 Norte 28 Norte 0 -- -- 58
2020-01-11 01:00:00 10.6 14 Norte 26 Norte 0 -- -- 58
2020-01-11 00:00:00 10.7 17 Noroeste 29 Norte 0 -- -- 59
2020-01-10 23:00:00 11 17 Norte 32 Noroeste 0 -- -- 59
2020-01-10 22:00:00 11.5 18 Norte 28 Norte 0 -- -- 59
2020-01-10 21:00:00 12.2 13 Norte 26 Norte 0 -- -- 57
2020-01-10 20:00:00 12 12 Norte 23 Norte 0 -- -- 59
2020-01-10 19:00:00 11.2 11 Norte 18 Norte 0 -- -- 67
2020-01-10 18:00:00 11.3 9 Norte 20 Norte 0 -- -- 67
2020-01-10 17:00:00 11.9 12 Nordeste 31 Nordeste 0 -- -- 64
2020-01-10 16:00:00 11.7 15 Nordeste 26 Nordeste 0 -- -- 69
2020-01-10 15:00:00 10.7 14 Nordeste 44 Nordeste 0.2 -- -- 78
2020-01-10 14:00:00 12.1 28 Nordeste 42 Nordeste 0 -- -- 64
2020-01-10 13:00:00 13.4 24 Norte 43 Norte 0 -- -- 49
2020-01-10 12:00:00 13.2 18 Norte 46 Norte 0 -- -- 50
2020-01-10 11:00:00 13.1 20 Nordeste 51 Nordeste 0 -- -- 48
2020-01-10 10:00:00 12.8 17 Norte 33 Norte 0 -- -- 49
2020-01-10 09:00:00 12.7 15 Norte 28 Norte 0 -- -- 52
2020-01-10 08:00:00 11.1 4 Oeste 18 Norte 0 -- -- 63
2020-01-10 07:00:00 11.1 9 Norte 20 Norte 0 -- -- 66
2020-01-10 06:00:00 9.6 14 Noroeste 30 Norte 0 -- -- 85
2020-01-10 05:00:00 9.3 14 Noroeste 24 Norte 0 -- -- 87
2020-01-10 04:00:00 9 14 Noroeste 21 Norte 0 -- -- 88
2020-01-10 03:00:00 8.8 11 Noroeste 15 Norte 0 -- -- 89
2020-01-10 02:00:00 9.2 5 Noroeste 13 Noroeste 0 -- -- 87
2020-01-10 01:00:00 10 6 Oeste 14 Oeste 0 -- -- 86
2020-01-10 00:00:00 10.4 6 Oeste 18 Noroeste 0 -- -- 83
2020-01-09 23:00:00 11 14 Oeste 19 Oeste 0 -- -- 81
2020-01-09 22:00:00 10.6 12 Oeste 15 Oeste 0 -- -- 85
2020-01-09 21:00:00 9.9 7 Noroeste 9 Noroeste 0 -- -- 85
2020-01-09 20:00:00 10.5 4 Oeste 13 Noroeste 0 -- -- 81
2020-01-09 19:00:00 10.4 5 Noroeste 9 Noroeste 0 -- -- 83
2020-01-09 18:00:00 12.4 3 Sudoeste 15 Sudoeste 0 -- -- 81
2020-01-09 17:00:00 13.5 10 Sur 21 Sur 0 -- -- 79
2020-01-09 16:00:00 14 13 Sur 21 Sur 0 -- -- 73
2020-01-09 15:00:00 14.5 12 Sur 22 Sur 0 -- -- 71
2020-01-09 14:00:00 14.4 10 Sur 21 Sur 0 -- -- 74
2020-01-09 13:00:00 14 10 Sur 19 Sur 0 -- -- 77
2020-01-09 12:00:00 14 8 Sur 15 Sur 0 -- -- 76
2020-01-09 11:00:00 12.6 3 Sur 15 Noroeste 0 -- -- 71
2020-01-09 10:00:00 9.5 9 Norte 18 Noroeste 0 -- -- 75
2020-01-09 09:00:00 7.9 12 Noroeste 23 Norte 0 -- -- 83
2020-01-09 08:00:00 7 13 Noroeste 22 Noroeste 0 -- -- 86
2020-01-09 07:00:00 7.3 9 Norte 20 Norte 0 -- -- 84
2020-01-09 06:00:00 7.5 12 Noroeste 19 Noroeste 0 -- -- 85
2020-01-09 05:00:00 7.6 14 Noroeste 22 Noroeste 0 -- -- 86
2020-01-09 04:00:00 8.3 14 Noroeste 21 Norte 0 -- -- 83
2020-01-09 03:00:00 8.9 15 Noroeste 22 Norte 0 -- -- 77
2020-01-09 02:00:00 8.4 3 Norte 18 Noroeste 0 -- -- 79
2020-01-09 01:00:00 8.9 13 Noroeste 20 Noroeste 0 -- -- 78
2020-01-09 00:00:00 9.4 13 Noroeste 17 Noroeste 0 -- -- 77
2020-01-08 23:00:00 9.4 11 Noroeste 19 Noroeste 0 -- -- 77
2020-01-08 22:00:00 10 13 Noroeste 19 Norte 0 -- -- 74
2020-01-08 21:00:00 10.4 11 Noroeste 15 Noroeste 0 -- -- 76
2020-01-08 20:00:00 9.8 7 Noroeste 9 Noroeste 0 -- -- 81
2020-01-08 19:00:00 10.3 2 Norte 5 Noroeste 0 -- -- 80
2020-01-08 18:00:00 12.5 3 Noroeste 5 Noroeste 0 -- -- 73
2020-01-08 17:00:00 16.1 3 Sur 5 Sur 0 -- -- 62
2020-01-08 16:00:00 15.9 3 Sudeste 14 Sudeste 0 -- -- 61
2020-01-08 15:00:00 16 8 Sudeste 14 Sudeste 0 -- -- 62
2020-01-08 14:00:00 15.4 7 Nordeste 17 Nordeste 0 -- -- 57
2020-01-08 13:00:00 14 8 Norte 21 Norte 0 -- -- 67
2020-01-08 12:00:00 11 10 Norte 15 Norte 0 -- -- 82
2020-01-08 11:00:00 9.6 12 Noroeste 22 Noroeste 0 -- -- 88
2020-01-08 10:00:00 9 5 Norte 10 Noroeste 0 -- -- 93
2020-01-08 09:00:00 7.5 3 Norte 14 Noroeste 0 -- -- 93
2020-01-08 08:00:00 7 8 Noroeste 14 Noroeste 0 -- -- 93
2020-01-08 07:00:00 7.4 12 Noroeste 21 Norte 0 -- -- 90
2020-01-08 06:00:00 8.2 12 Noroeste 17 Noroeste 0 -- -- 87
2020-01-08 05:00:00 7.4 10 Noroeste 13 Noroeste 0 -- -- 91
2020-01-08 04:00:00 7.5 6 Noroeste 11 Noroeste 0 -- -- 91
2020-01-08 03:00:00 7.6 7 Noroeste 16 Noroeste 0 -- -- 87
2020-01-08 02:00:00 7.6 10 Noroeste 16 Noroeste 0 -- -- 89
2020-01-08 01:00:00 8.1 11 Noroeste 16 Noroeste 0 -- -- 89
2020-01-08 00:00:00 8.4 11 Noroeste 15 Noroeste 0 -- -- 91
2020-01-07 23:00:00 8.7 10 Noroeste 15 Noroeste 0 -- -- 92
2020-01-07 22:00:00 8.7 8 Noroeste 12 Noroeste 0 -- -- 92
2020-01-07 21:00:00 9.1 9 Noroeste 11 Noroeste 0 -- -- 91
2020-01-07 20:00:00 9 7 Noroeste 10 Noroeste 0 -- -- 91
2020-01-07 19:00:00 9.5 2 Noroeste 5 Noroeste 0 -- -- 87
2020-01-07 18:00:00 12.1 0 Calma 9 Sur 0 -- -- 80
2020-01-07 17:00:00 13.4 6 Sur 15 Sur 0 -- -- 77
2020-01-07 16:00:00 13.8 8 Sudeste 16 Sudeste 0 -- -- 76
2020-01-07 15:00:00 14.1 10 Sudeste 15 Sudeste 0 -- -- 72
2020-01-07 14:00:00 14 8 Sur 14 Sudeste 0 -- -- 75
2020-01-07 13:00:00 13.5 10 Sur 17 Sur 0 -- -- 77
2020-01-07 12:00:00 13.6 8 Sudeste 13 Sudeste 0 -- -- 76
2020-01-07 11:00:00 12.3 6 Sur 10 Sur 0 -- -- 81
2020-01-07 10:00:00 9.7 3 Sudoeste 14 Noroeste 0 -- -- 89
2020-01-07 09:00:00 6.3 9 Noroeste 19 Noroeste 0 -- -- 93
2020-01-07 08:00:00 7 10 Noroeste 17 Norte 0 -- -- 92
2020-01-07 07:00:00 6.7 0 Calma 13 Noroeste 0 -- -- 92
2020-01-07 06:00:00 7.4 7 Oeste 13 Sudoeste 0 -- -- 90
2020-01-07 05:00:00 7.8 5 Oeste 15 Noroeste 0 -- -- 92
2020-01-07 04:00:00 7.5 12 Noroeste 18 Norte 0 -- -- 92
2020-01-07 03:00:00 8.6 11 Noroeste 17 Norte 0 -- -- 89
2020-01-07 02:00:00 9.4 11 Noroeste 15 Noroeste 0 -- -- 89
2020-01-07 01:00:00 9.9 6 Noroeste 15 Noroeste 0 -- -- 88
2020-01-07 00:00:00 10.3 6 Norte 14 Noroeste 0 -- -- 88
2020-01-06 23:00:00 10 10 Noroeste 14 Noroeste 0 -- -- 88
2020-01-06 22:00:00 9.4 9 Noroeste 13 Noroeste 0 -- -- 90
2020-01-06 21:00:00 9.6 8 Noroeste 10 Noroeste 0 -- -- 89
2020-01-06 20:00:00 10 6 Noroeste 9 Noroeste 0 -- -- 88
2020-01-06 19:00:00 9.6 5 Noroeste 7 Noroeste 0 -- -- 87
2020-01-06 18:00:00 11.4 3 Noroeste 8 Sur 0 -- -- 79
2020-01-06 17:00:00 13.8 5 Sur 14 Sur 0 -- -- 72
2020-01-06 16:00:00 14.4 8 Sudeste 17 Sudeste 0 -- -- 69
2020-01-06 15:00:00 14.6 9 Sudeste 15 Sudeste 0 -- -- 67
2020-01-06 14:00:00 14.6 9 Sudeste 16 Sudeste 0 -- -- 68
2020-01-06 13:00:00 15.3 8 Sudeste 15 Sudeste 0 -- -- 68
2020-01-06 12:00:00 14.9 4 Sudeste 9 Sudeste 0 -- -- 68
2020-01-06 11:00:00 12.8 5 Noroeste 19 Noroeste 0 -- -- 71
2020-01-06 10:00:00 10.2 13 Noroeste 26 Norte 0 -- -- 74